Time;durP1;ratioP1;P1;durP2;ratioP2;P2;SDS_P1;SDS_P2;PMS_P1;PMS_P2;Temp;Humidity;BMP_temperature;BMP_pressure;BME280_temperature;BME280_humidity;BME280_pressure;Samples;Min_cycle;Max_cycle;Signal;HPM_P1;HPM_P2
2022/06/12 00:00:08;;;;;;;6.40;2.47;;;;;;;12.63;84.15;102165.34;5038887;28;20167;-88
2022/06/12 00:02:34;;;;;;;7.63;2.20;;;;;;;12.59;84.73;102163.38;5019391;28;20381;-89
2022/06/12 00:04:59;;;;;;;10.40;2.70;;;;;;;12.50;84.05;102157.56;5034161;28;20021;-88
2022/06/12 00:07:25;;;;;;;8.43;2.95;;;;;;;12.48;84.16;102155.09;5033856;28;20034;-87
2022/06/12 00:09:50;;;;;;;11.23;3.17;;;;;;;12.50;84.38;102157.56;5034237;28;20029;-88
2022/06/12 00:12:15;;;;;;;7.47;2.93;;;;;;;12.44;84.59;102156.63;5033488;28;20042;-87
2022/06/12 00:14:41;;;;;;;10.43;3.40;;;;;;;12.38;84.99;102154.91;5033725;28;20038;-87
2022/06/12 00:17:06;;;;;;;6.50;3.00;;;;;;;12.37;84.89;102154.06;5033968;28;20033;-87
2022/06/12 00:19:34;;;;;;;12.77;3.30;;;;;;;12.29;85.17;102151.75;5033838;28;20488;-89
2022/06/12 00:22:00;;;;;;;10.93;3.20;;;;;;;12.30;85.31;102152.56;5033342;28;20108;-88
2022/06/12 00:24:26;;;;;;;8.38;2.90;;;;;;;12.25;84.95;102151.41;5033428;28;20108;-88
2022/06/12 00:26:54;;;;;;;10.60;2.77;;;;;;;12.26;85.00;102160.28;5033778;28;20104;-88
2022/06/12 00:29:29;;;;;;;7.97;2.90;;;;;;;12.26;84.63;102157.63;5033701;28;20326;-88
2022/06/12 00:32:01;;;;;;;11.13;2.60;;;;;;;12.19;84.33;102157.75;5033304;28;20079;-88
2022/06/12 00:34:31;;;;;;;8.60;2.45;;;;;;;12.07;84.46;102148.84;5032917;28;20119;-88
2022/06/12 00:36:57;;;;;;;8.25;2.40;;;;;;;11.99;84.92;102157.28;5034121;28;20113;-88
2022/06/12 00:39:23;;;;;;;7.97;2.03;;;;;;;11.95;85.97;102151.53;5035324;28;20465;-88
2022/06/12 00:41:50;;;;;;;9.88;2.40;;;;;;;12.03;85.83;102156.56;5034738;28;20026;-88
2022/06/12 00:44:24;;;;;;;6.10;1.92;;;;;;;11.99;85.66;102155.41;5034418;28;20125;-88
2022/06/12 00:46:51;;;;;;;5.77;2.10;;;;;;;11.92;85.89;102157.38;5033553;28;20048;-88
2022/06/12 00:49:29;;;;;;;7.97;2.17;;;;;;;11.85;85.45;102159.34;5033947;28;20370;-88
2022/06/12 00:52:18;;;;;;;5.22;1.90;;;;;;;11.77;85.69;102156.00;5032546;28;20040;-88
2022/06/12 00:54:48;;;;;;;10.13;2.03;;;;;;;11.75;86.21;102163.47;5033446;28;20057;-88
2022/06/12 00:57:14;;;;;;;6.55;1.85;;;;;;;11.72;86.28;102166.59;5033322;28;20108;-88
2022/06/12 00:59:48;;;;;;;10.02;1.90;;;;;;;11.67;86.70;102163.78;5033387;28;20029;-88
2022/06/12 01:02:17;;;;;;;10.02;1.73;;;;;;;11.61;86.59;102162.03;5033194;28;20547;-88
2022/06/12 01:07:37;;;;;;;6.47;2.00;;;;;;;11.60;87.59;102160.38;5033818;28;20100;-89
2022/06/12 01:10:08;;;;;;;10.23;2.00;;;;;;;11.64;87.23;102165.09;5032830;28;20299;-87
2022/06/12 01:12:43;;;;;;;6.35;1.80;;;;;;;11.63;87.39;102158.06;5032874;28;20029;-87
2022/06/12 01:15:14;;;;;;;8.15;2.05;;;;;;;11.56;87.43;102146.63;5032872;28;20049;-86
2022/06/12 01:17:40;;;;;;;7.38;2.03;;;;;;;11.43;88.09;102155.69;5032956;28;20061;-87
2022/06/12 01:20:19;;;;;;;9.07;2.03;;;;;;;11.33;87.54;102148.22;5032432;28;20076;-88
2022/06/12 01:22:47;;;;;;;6.57;1.70;;;;;;;11.32;88.49;102159.19;5032712;28;20380;-88
2022/06/12 01:25:46;;;;;;;6.90;2.10;;;;;;;11.24;87.68;102157.66;5032864;28;20033;-88
2022/06/12 01:28:39;;;;;;;9.15;2.10;;;;;;;11.20;88.74;102159.16;5032467;28;20022;-88
2022/06/12 01:31:14;;;;;;;9.57;1.90;;;;;;;11.17;89.35;102157.75;5032148;28;20029;-88
2022/06/12 01:33:52;;;;;;;8.07;1.90;;;;;;;11.09;89.58;102158.06;5032488;28;20292;-87
2022/06/12 01:36:28;;;;;;;6.68;2.22;;;;;;;11.04;89.86;102160.63;5032662;28;20055;-87
2022/06/12 01:39:22;;;;;;;7.85;2.13;;;;;;;10.96;89.97;102156.38;5032311;28;20584;-87
2022/06/12 01:42:12;;;;;;;6.88;2.17;;;;;;;10.91;89.22;102148.22;5032431;28;20401;-88
2022/06/12 01:45:10;;;;;;;4.88;2.30;;;;;;;10.88;89.83;102143.31;5032359;28;20112;-88
2022/06/12 01:47:50;;;;;;;7.20;1.77;;;;;;;10.86;90.14;102140.03;5032033;28;20485;-88
2022/06/12 01:50:27;;;;;;;7.93;2.17;;;;;;;10.81;90.15;102137.22;5031628;28;20025;-88
2022/06/12 01:53:04;;;;;;;5.03;2.03;;;;;;;10.82;90.25;102142.38;5032020;28;20132;-88
2022/06/12 01:55:43;;;;;;;9.70;2.05;;;;;;;10.76;89.65;102143.25;5031826;28;20074;-88
2022/06/12 01:58:27;;;;;;;8.37;2.23;;;;;;;10.69;90.36;102135.31;5032050;28;20075;-87
2022/06/12 02:01:16;;;;;;;8.80;2.20;;;;;;;10.65;90.61;102139.47;5031600;28;20280;-87
2022/06/12 02:03:50;;;;;;;14.68;2.45;;;;;;;10.58;91.00;102146.81;5031518;28;20037;-87
2022/06/12 02:06:28;;;;;;;8.95;2.40;;;;;;;10.51;91.29;102140.69;5032009;28;20633;-88
2022/06/12 02:09:02;;;;;;;10.25;2.50;;;;;;;10.41;91.67;102135.88;5032043;28;20105;-88
2022/06/12 02:14:26;;;;;;;10.07;2.28;;;;;;;10.33;92.20;102142.31;5031734;28;20044;-88
2022/06/12 02:16:57;;;;;;;11.07;2.35;;;;;;;10.28;92.49;102145.69;5031491;28;20425;-88
2022/06/12 02:19:32;;;;;;;6.32;2.55;;;;;;;10.28;92.49;102143.00;5030981;28;20476;-88
2022/06/12 02:22:09;;;;;;;11.00;2.92;;;;;;;10.26;93.04;102145.06;5031250;28;20046;-88
2022/06/12 02:24:46;;;;;;;11.70;2.80;;;;;;;10.25;92.82;102148.78;5031404;28;20021;-88
2022/06/12 02:27:20;;;;;;;5.37;2.33;;;;;;;10.23;93.17;102150.03;5031173;28;20362;-88
2022/06/12 02:29:56;;;;;;;10.55;2.67;;;;;;;10.17;93.21;102158.97;5031376;28;20477;-89
2022/06/12 02:32:27;;;;;;;11.15;2.60;;;;;;;10.18;93.43;102155.25;5030617;28;20491;-87
2022/06/12 02:34:58;;;;;;;10.40;2.90;;;;;;;10.14;93.42;102138.81;5031458;28;20029;-88
2022/06/12 02:37:33;;;;;;;7.47;2.83;;;;;;;10.08;93.42;102140.50;5032011;28;20083;-87
2022/06/12 02:40:05;;;;;;;7.60;2.55;;;;;;;10.04;93.79;102139.34;5031014;28;20108;-87
2022/06/12 02:42:37;;;;;;;10.63;2.83;;;;;;;10.04;93.88;102143.88;5030920;28;20539;-87
2022/06/12 02:45:40;;;;;;;9.07;2.70;;;;;;;10.05;93.12;102146.31;5031205;28;20488;-87
2022/06/12 02:48:06;;;;;;;12.25;2.70;;;;;;;10.02;93.85;102130.72;4964410;28;20041;-88
2022/06/12 02:50:39;;;;;;;10.50;3.20;;;;;;;10.12;95.27;102132.88;5030305;28;20423;-88
2022/06/12 02:53:19;;;;;;;10.13;2.90;;;;;;;10.12;94.35;102125.63;5031230;28;20331;-88
2022/06/12 02:56:10;;;;;;;9.95;2.80;;;;;;;10.10;93.52;102130.41;5031161;28;20492;-87
2022/06/12 02:58:58;;;;;;;9.82;2.53;;;;;;;10.05;93.94;102124.88;5031729;28;20026;-88
2022/06/12 03:01:32;;;;;;;10.82;2.83;;;;;;;10.08;94.25;102124.44;5030036;28;20032;-88
2022/06/12 03:04:07;;;;;;;10.40;3.03;;;;;;;10.07;94.17;102122.81;5030652;28;20056;-88
2022/06/12 03:06:34;;;;;;;10.63;3.25;;;;;;;10.06;94.87;102123.84;5031452;28;20095;-88
2022/06/12 03:09:02;;;;;;;9.43;3.30;;;;;;;10.07;94.74;102128.16;5031657;28;20485;-88
2022/06/12 03:11:36;;;;;;;9.85;2.90;;;;;;;10.09;94.58;102127.97;5030937;28;20085;-88
2022/06/12 03:14:04;;;;;;;11.45;3.15;;;;;;;10.10;94.92;102121.56;5013921;28;20036;-88
2022/06/12 03:16:33;;;;;;;9.03;2.47;;;;;;;10.13;94.56;102126.47;5031411;28;20065;-86
2022/06/12 03:19:09;;;;;;;12.03;3.03;;;;;;;10.11;94.28;102133.91;5013733;28;20350;-86
2022/06/12 03:21:58;;;;;;;13.68;2.72;;;;;;;10.13;94.44;102132.63;5031629;28;20569;-87
2022/06/12 03:24:23;;;;;;;10.60;2.92;;;;;;;10.14;94.85;102131.59;5031647;28;20025;-88
2022/06/12 03:27:16;;;;;;;13.53;3.30;;;;;;;10.13;93.97;102142.56;5031662;28;20044;-89
2022/06/12 03:29:53;;;;;;;8.80;3.13;;;;;;;10.15;94.71;102135.91;5031257;28;20029;-89
2022/06/12 03:32:18;;;;;;;14.32;3.15;;;;;;;10.18;94.73;102137.31;5033493;28;20037;-88
2022/06/12 03:35:02;;;;;;;8.87;3.23;;;;;;;10.21;94.54;102128.03;5034734;28;20033;-88
2022/06/12 03:37:45;;;;;;;10.35;2.65;;;;;;;10.23;94.52;102136.66;5035069;28;20087;-88
2022/06/12 03:40:48;;;;;;;13.45;3.05;;;;;;;10.26;94.52;102142.41;5036588;28;20021;-89
2022/06/12 03:43:31;;;;;;;13.27;3.03;;;;;;;10.23;94.57;102128.59;5037133;28;20087;-89
2022/06/12 03:46:13;;;;;;;13.50;3.42;;;;;;;10.35;95.24;102144.75;5034751;28;20029;-88
2022/06/12 03:49:08;;;;;;;12.38;3.13;;;;;;;10.39;95.13;102141.47;5034645;28;20033;-89
2022/06/12 03:51:35;;;;;;;12.00;3.60;;;;;;;10.37;95.23;102138.16;5033852;28;20073;-89
2022/06/12 03:54:06;;;;;;;11.30;2.83;;;;;;;10.45;95.25;102139.75;5034207;28;20033;-90
2022/06/12 03:59:38;;;;;;;8.75;3.33;;;;;;;10.57;94.72;102137.13;5034176;28;20036;-89
2022/06/12 04:02:08;;;;;;;9.18;3.65;;;;;;;10.60;95.63;102140.16;5033536;28;20040;-89
2022/06/12 04:04:36;;;;;;;11.02;3.80;;;;;;;10.64;95.79;102142.41;5034079;28;20079;-88
2022/06/12 04:07:04;;;;;;;14.32;3.72;;;;;;;10.72;95.59;102147.44;5034182;28;20036;-88
2022/06/12 04:09:35;;;;;;;13.02;3.83;;;;;;;10.81;95.43;102145.25;5034372;28;20021;-88
2022/06/12 04:12:05;;;;;;;17.05;3.90;;;;;;;10.85;95.05;102154.50;5033435;28;20025;-88
2022/06/12 04:14:38;;;;;;;14.68;3.53;;;;;;;10.94;94.74;102150.47;5034107;28;20030;-88
2022/06/12 04:17:04;;;;;;;14.05;3.88;;;;;;;11.00;94.43;102151.41;5033689;28;20029;-88
2022/06/12 04:19:32;;;;;;;13.30;3.40;;;;;;;11.05;94.32;102149.66;5033760;28;20021;-88
2022/06/12 04:22:06;;;;;;;14.90;4.40;;;;;;;11.12;94.07;102148.75;5033172;28;20338;-89
2022/06/12 04:24:45;;;;;;;11.15;3.65;;;;;;;11.39;93.62;102151.88;5033995;28;20071;-89
2022/06/12 04:27:27;;;;;;;15.32;3.70;;;;;;;11.63;91.85;102141.13;5033797;28;20021;-89
2022/06/12 04:30:00;;;;;;;14.05;3.50;;;;;;;11.68;91.08;102151.19;5034306;28;20030;-87
2022/06/12 04:32:27;;;;;;;9.30;3.40;;;;;;;11.68;90.78;102159.25;5034392;28;20036;-87
2022/06/12 04:34:53;;;;;;;11.00;3.42;;;;;;;11.66;90.93;102164.84;5034802;28;20032;-88
2022/06/12 04:37:22;;;;;;;10.50;3.40;;;;;;;11.68;90.79;102156.56;5034890;28;20481;-89
2022/06/12 04:39:48;;;;;;;11.70;3.78;;;;;;;11.72;91.11;102163.91;5015958;28;20025;-89
2022/06/12 04:42:16;;;;;;;12.90;3.75;;;;;;;11.76;90.77;102162.41;5032513;28;20025;-87
2022/06/12 04:44:43;;;;;;;9.75;3.47;;;;;;;11.95;90.26;102171.16;5033300;28;20041;-88
2022/06/12 04:47:12;;;;;;;10.55;3.47;;;;;;;12.27;89.46;102170.00;5033921;28;20022;-88
2022/06/12 04:49:38;;;;;;;13.65;3.78;;;;;;;13.18;86.71;102173.88;5034174;28;20405;-88
2022/06/12 04:52:07;;;;;;;9.80;2.97;;;;;;;14.46;81.61;102174.19;5032724;28;20033;-88
2022/06/12 04:54:34;;;;;;;8.90;3.40;;;;;;;15.58;75.68;102177.47;5033577;28;20040;-89
2022/06/12 04:56:59;;;;;;;9.97;3.33;;;;;;;16.45;71.71;102177.16;5033073;28;20355;-88
2022/06/12 04:59:25;;;;;;;14.38;3.22;;;;;;;17.03;68.73;102170.84;5033877;28;20101;-88
2022/06/12 05:01:51;;;;;;;10.15;3.20;;;;;;;17.56;65.67;102176.00;5034037;28;20022;-88
2022/06/12 05:04:18;;;;;;;11.47;2.73;;;;;;;18.09;63.08;102168.59;5017283;28;20102;-88
2022/06/12 05:06:44;;;;;;;9.20;2.90;;;;;;;18.65;61.75;102167.56;5048732;28;20259;-86
2022/06/12 05:09:12;;;;;;;11.15;3.13;;;;;;;19.24;59.93;102166.91;5033186;28;20030;-87
2022/06/12 05:11:38;;;;;;;12.48;3.00;;;;;;;19.60;57.51;102155.72;5052323;28;20043;-87
2022/06/12 05:14:06;;;;;;;10.90;2.83;;;;;;;20.07;56.45;102158.78;5038446;28;20108;-88
2022/06/12 05:16:50;;;;;;;11.70;2.57;;;;;;;20.52;56.54;102169.38;5034499;28;20472;-89
2022/06/12 05:19:19;;;;;;;9.63;2.87;;;;;;;20.96;54.07;102173.69;5033171;28;20269;-87
2022/06/12 05:21:45;;;;;;;9.57;3.33;;;;;;;21.36;52.20;102169.78;5031855;28;20029;-88
2022/06/12 05:24:11;;;;;;;9.95;2.95;;;;;;;21.63;51.59;102169.88;5032827;28;20501;-88
2022/06/12 05:26:42;;;;;;;10.80;2.73;;;;;;;21.84;51.71;102174.13;5032361;28;20420;-88
2022/06/12 05:29:13;;;;;;;8.53;2.77;;;;;;;22.05;50.92;102174.53;5032551;28;20707;-90
2022/06/12 05:31:38;;;;;;;11.65;2.97;;;;;;;22.21;49.89;102166.84;5032204;28;20380;-87
2022/06/12 05:34:04;;;;;;;10.80;2.78;;;;;;;22.20;49.34;102176.97;5032073;28;20025;-88
2022/06/12 05:36:29;;;;;;;11.93;2.83;;;;;;;22.44;48.96;102169.66;5032212;28;20029;-88
2022/06/12 05:38:55;;;;;;;19.10;3.00;;;;;;;22.49;48.71;102167.63;5032042;28;20026;-88
2022/06/12 05:41:20;;;;;;;12.02;3.15;;;;;;;22.59;48.04;102184.91;5032219;28;20022;-88
2022/06/12 05:43:46;;;;;;;14.73;3.60;;;;;;;22.42;48.08;102175.44;5032076;28;20059;-88
2022/06/12 05:46:13;;;;;;;11.23;3.13;;;;;;;22.36;49.09;102180.19;5032075;28;20033;-88
2022/06/12 05:48:40;;;;;;;11.50;3.47;;;;;;;22.19;48.69;102179.97;5032075;28;20488;-88
2022/06/12 05:51:07;;;;;;;16.45;3.10;;;;;;;22.17;49.34;102176.78;5032493;28;20031;-88
2022/06/12 05:53:36;;;;;;;10.98;3.10;;;;;;;22.25;50.01;102181.50;5032014;28;20395;-88
2022/06/12 05:56:08;;;;;;;14.95;3.60;;;;;;;22.03;50.64;102183.03;5032505;28;20079;-88
2022/06/12 05:58:38;;;;;;;14.60;3.58;;;;;;;21.92;51.16;102187.88;5032373;28;20026;-88
2022/06/12 06:01:07;;;;;;;9.30;3.03;;;;;;;21.74;51.18;102183.31;5032194;28;20075;-88
2022/06/12 06:03:34;;;;;;;15.47;3.40;;;;;;;21.71;52.16;102181.19;5032085;28;20029;-86
2022/06/12 06:05:59;;;;;;;12.63;3.20;;;;;;;21.37;52.60;102187.75;5031780;28;20759;-88
2022/06/12 06:08:25;;;;;;;15.18;3.30;;;;;;;20.70;54.23;102184.91;5031545;28;20033;-88
2022/06/12 06:10:50;;;;;;;14.50;3.60;;;;;;;20.39;55.80;102179.06;5031646;28;20025;-87
2022/06/12 06:13:16;;;;;;;12.75;3.67;;;;;;;20.12;57.33;102186.75;5031616;28;20032;-89
2022/06/12 06:15:42;;;;;;;15.13;3.47;;;;;;;19.83;57.51;102186.75;5031853;28;20480;-88
2022/06/12 06:18:08;;;;;;;12.20;3.40;;;;;;;19.57;58.91;102188.91;5031452;28;20100;-86
2022/06/12 06:20:36;;;;;;;12.68;3.65;;;;;;;19.33;60.28;102190.47;5031145;28;20052;-88
2022/06/12 06:23:01;;;;;;;18.70;3.42;;;;;;;19.26;61.07;102200.06;5031176;28;20150;-88
2022/06/12 06:25:28;;;;;;;18.47;3.87;;;;;;;19.03;61.89;102191.50;5031727;28;20116;-88
2022/06/12 06:27:54;;;;;;;21.13;3.83;;;;;;;19.01;62.81;102189.09;5031288;28;20535;-88
2022/06/12 06:30:22;;;;;;;21.27;4.20;;;;;;;18.99;63.64;102191.28;5030889;28;20038;-89
2022/06/12 06:32:47;;;;;;;20.27;4.10;;;;;;;18.86;64.38;102183.72;5031022;28;20029;-88
2022/06/12 06:35:13;;;;;;;19.23;3.73;;;;;;;18.75;64.71;102196.56;5031364;28;20034;-88
2022/06/12 06:37:40;;;;;;;20.58;3.95;;;;;;;18.78;65.02;102198.72;5031233;28;20393;-88
2022/06/12 06:40:07;;;;;;;18.67;3.70;;;;;;;18.81;66.22;102194.63;5031148;28;20044;-88
2022/06/12 06:42:33;;;;;;;21.05;3.72;;;;;;;18.80;66.41;102201.97;5030690;28;20032;-88
2022/06/12 06:47:42;;;;;;;20.97;3.63;;;;;;;19.16;67.09;102200.94;5031061;28;20044;-88
2022/06/12 06:50:11;;;;;;;21.87;4.27;;;;;;;19.60;64.55;102210.91;5031448;28;20276;-88
2022/06/12 06:52:37;;;;;;;18.48;4.00;;;;;;;19.97;62.91;102211.41;5030317;28;20412;-88
2022/06/12 06:55:03;;;;;;;19.33;4.40;;;;;;;20.05;62.39;102209.94;5031201;28;20031;-87
2022/06/12 06:57:29;;;;;;;15.57;3.55;;;;;;;20.25;62.45;102204.28;5031169;28;20021;-87
2022/06/12 06:59:57;;;;;;;19.03;3.77;;;;;;;20.48;61.80;102204.56;5013684;28;20121;-87
2022/06/12 07:02:22;;;;;;;20.63;4.10;;;;;;;20.56;60.48;102211.25;5030295;28;20347;-88
2022/06/12 07:04:51;;;;;;;20.15;3.85;;;;;;;20.40;60.42;102210.63;5031347;28;20110;-87
2022/06/12 07:07:16;;;;;;;18.57;4.40;;;;;;;20.31;60.71;102212.41;5031190;28;20025;-87
2022/06/12 07:09:41;;;;;;;17.27;3.92;;;;;;;20.43;61.71;102207.34;5031286;28;20040;-87
2022/06/12 07:12:08;;;;;;;16.33;4.00;;;;;;;20.41;61.54;102212.25;5030793;28;20026;-88
2022/06/12 07:14:33;;;;;;;18.73;4.40;;;;;;;20.40;61.36;102210.63;5030831;28;20029;-87
2022/06/12 07:16:59;;;;;;;17.77;4.50;;;;;;;20.64;61.28;102213.31;5030767;28;20132;-87
2022/06/12 07:19:27;;;;;;;19.88;4.68;;;;;;;20.71;59.94;102216.50;5030782;28;20485;-87
2022/06/12 07:21:53;;;;;;;21.40;4.22;;;;;;;20.89;60.65;102216.84;5030336;28;20477;-87
2022/06/12 07:24:19;;;;;;;16.00;4.50;;;;;;;21.03;59.01;102206.81;5031186;28;20385;-87
2022/06/12 07:26:52;;;;;;;17.40;4.63;;;;;;;21.30;58.31;102210.75;5031709;28;20025;-87
2022/06/12 07:29:19;;;;;;;21.15;4.20;;;;;;;21.42;57.53;102213.03;5051243;22;20706;-87
2022/06/12 07:31:47;;;;;;;20.08;4.55;;;;;;;21.77;56.90;102209.97;5050248;28;20434;-87
2022/06/12 07:34:13;;;;;;;20.70;4.60;;;;;;;22.17;55.26;102214.97;5050441;28;20480;-87
2022/06/12 07:36:40;;;;;;;17.80;3.75;;;;;;;22.37;54.89;102219.22;5050946;28;20033;-87
2022/06/12 07:39:15;;;;;;;16.40;4.47;;;;;;;22.19;55.42;102216.28;5050786;28;20028;-86
2022/06/12 07:41:41;;;;;;;13.80;3.90;;;;;;;21.99;54.33;102217.50;5062437;28;20271;-87
2022/06/12 07:44:16;;;;;;;18.08;4.90;;;;;;;21.78;54.32;102215.16;5065600;28;20032;-85
2022/06/12 07:46:42;;;;;;;19.58;4.28;;;;;;;22.01;54.87;102219.91;5065233;28;20025;-87
2022/06/12 07:49:07;;;;;;;16.73;4.22;;;;;;;22.52;54.89;102224.38;5061779;28;20044;-88
2022/06/12 07:51:32;;;;;;;15.37;4.27;;;;;;;22.71;54.12;102226.16;5051188;28;20099;-87
2022/06/12 07:53:58;;;;;;;20.03;4.83;;;;;;;22.90;52.33;102231.50;5051937;28;20067;-87
2022/06/12 07:56:25;;;;;;;22.17;4.60;;;;;;;22.83;52.35;102231.09;5051624;28;20025;-88
2022/06/12 07:58:50;;;;;;;20.40;3.88;;;;;;;22.92;51.79;102220.25;5052012;28;20044;-88
2022/06/12 08:01:18;;;;;;;15.53;4.13;;;;;;;23.09;51.60;102223.09;5051392;28;20021;-88
2022/06/12 08:03:46;;;;;;;18.55;4.65;;;;;;;23.31;52.25;102209.78;5050945;28;20029;-88
2022/06/12 08:06:11;;;;;;;19.13;4.35;;;;;;;23.46;50.79;102225.81;5051351;28;20033;-88
2022/06/12 08:08:37;;;;;;;12.17;4.10;;;;;;;23.44;51.19;102228.84;5051102;28;20094;-87
2022/06/12 08:11:03;;;;;;;14.27;3.97;;;;;;;23.34;50.80;102217.34;5050853;28;20451;-88
2022/06/12 08:13:29;;;;;;;17.37;4.70;;;;;;;23.38;51.11;102221.09;5050770;28;20025;-87
2022/06/12 08:15:54;;;;;;;18.05;4.07;;;;;;;23.75;51.04;102221.78;5050987;28;20029;-88
2022/06/12 08:18:22;;;;;;;15.60;4.60;;;;;;;23.72;49.04;102217.75;5053955;28;20032;-87
2022/06/12 08:20:52;;;;;;;14.30;4.18;;;;;;;24.03;48.43;102219.69;5053146;28;20029;-88
2022/06/12 08:23:37;;;;;;;16.65;4.07;;;;;;;24.10;48.32;102218.44;5053860;28;20108;-89
2022/06/12 08:26:13;;;;;;;14.77;4.20;;;;;;;24.02;48.45;102220.81;5054085;28;20025;-88
2022/06/12 08:28:45;;;;;;;19.57;4.10;;;;;;;23.98;49.62;102217.06;5053484;28;20754;-87
2022/06/12 08:31:14;;;;;;;15.68;3.90;;;;;;;23.91;47.80;102219.44;5052993;28;20087;-87
2022/06/12 08:33:41;;;;;;;14.90;4.22;;;;;;;24.08;45.92;102207.78;5052735;28;20434;-87
2022/06/12 08:36:09;;;;;;;14.82;3.35;;;;;;;23.99;46.94;102224.16;5053398;28;20029;-87
2022/06/12 08:38:34;;;;;;;13.68;3.90;;;;;;;24.00;48.03;102214.84;5053245;28;20033;-87
2022/06/12 08:41:23;;;;;;;17.17;4.27;;;;;;;24.26;48.54;102227.00;5053020;28;20552;-87
2022/06/12 08:44:04;;;;;;;13.40;4.00;;;;;;;23.94;48.10;102215.25;5037963;28;20040;-87
2022/06/12 08:46:41;;;;;;;20.08;4.05;;;;;;;23.69;48.81;102207.44;5053416;28;20033;-87
2022/06/12 08:49:26;;;;;;;17.00;4.03;;;;;;;23.53;48.38;102207.03;5053080;28;20134;-88
2022/06/12 08:51:54;;;;;;;20.05;4.30;;;;;;;23.72;47.89;102206.81;5034954;28;20021;-89
2022/06/12 08:54:42;;;;;;;11.80;3.42;;;;;;;24.03;48.80;102202.44;5053049;28;20033;-88
2022/06/12 08:57:11;;;;;;;18.25;4.50;;;;;;;23.75;49.29;102197.16;5052929;28;20033;-89
2022/06/12 08:59:49;;;;;;;19.30;5.20;;;;;;;23.88;48.15;102195.44;5052932;28;20569;-88
2022/06/12 09:02:29;;;;;;;15.30;3.97;;;;;;;23.63;49.39;102196.94;5052416;28;20032;-88
2022/06/12 09:04:55;;;;;;;13.10;4.17;;;;;;;23.65;48.66;102190.03;5052698;28;20366;-89
2022/06/12 09:07:45;;;;;;;13.90;4.20;;;;;;;23.89;49.47;102195.13;5052967;28;20100;-88
2022/06/12 09:10:25;;;;;;;13.02;3.67;;;;;;;24.11;47.26;102189.91;5038158;28;20064;-88
2022/06/12 09:12:57;;;;;;;15.00;3.00;;;;;;;23.93;48.15;102189.81;5052770;28;20461;-88
2022/06/12 09:15:37;;;;;;;15.88;3.90;;;;;;;24.03;46.89;102189.56;5052616;28;20074;-88
2022/06/12 09:18:24;;;;;;;12.77;3.42;;;;;;;24.32;45.65;102190.91;5052960;28;20029;-88
2022/06/12 09:21:03;;;;;;;14.02;3.60;;;;;;;24.24;44.13;102179.94;5052137;28;20079;-88
2022/06/12 09:23:44;;;;;;;11.10;3.40;;;;;;;24.08;46.44;102185.88;5053013;28;20021;-88
2022/06/12 09:26:26;;;;;;;17.93;3.63;;;;;;;24.17;45.55;102188.63;5053027;28;20287;-88
2022/06/12 09:29:15;;;;;;;11.98;3.85;;;;;;;24.40;44.77;102188.53;5051381;28;20484;-89
2022/06/12 09:31:50;;;;;;;11.63;3.67;;;;;;;24.60;44.20;102190.66;5034307;28;20067;-88
2022/06/12 09:34:46;;;;;;;10.38;3.10;;;;;;;25.01;43.51;102187.78;5052486;28;20472;-86
2022/06/12 09:40:26;;;;;;;7.43;3.10;;;;;;;25.60;40.61;102187.19;5052765;28;20032;-88
2022/06/12 09:43:03;;;;;;;9.40;3.30;;;;;;;25.76;39.93;102181.16;5052985;28;20103;-88
2022/06/12 09:46:05;;;;;;;7.53;2.55;;;;;;;26.11;41.72;102183.72;5053302;28;20040;-88
2022/06/12 09:48:42;;;;;;;13.68;3.10;;;;;;;26.29;39.03;102187.19;5052562;28;20032;-88
2022/06/12 09:51:22;;;;;;;11.37;3.10;;;;;;;26.40;38.24;102179.34;5052017;28;20039;-89
2022/06/12 09:54:15;;;;;;;9.97;3.20;;;;;;;26.03;39.23;102182.63;5052388;28;20295;-88
2022/06/12 09:56:47;;;;;;;9.75;3.05;;;;;;;25.97;38.90;102184.75;5052977;28;20465;-88
2022/06/12 09:59:22;;;;;;;10.75;4.03;;;;;;;26.13;39.00;102187.75;5052008;28;20023;-88
2022/06/12 10:01:53;;;;;;;9.75;3.67;;;;;;;26.20;38.74;102178.19;5051767;28;20384;-89
2022/06/12 10:04:37;;;;;;;12.55;3.65;;;;;;;26.15;39.15;102188.22;5051884;28;20033;-88
2022/06/12 10:07:07;;;;;;;11.65;3.30;;;;;;;26.08;38.81;102179.69;5051713;28;20482;-89
2022/06/12 10:09:38;;;;;;;11.80;3.53;;;;;;;25.68;39.77;102182.78;5051634;28;20021;-88
2022/06/12 10:12:23;;;;;;;9.48;3.00;;;;;;;25.94;40.24;102168.94;5210656;22;20053;-88
2022/06/12 10:14:52;;;;;;;10.40;3.20;;;;;;;26.05;38.48;102174.03;5051511;28;20033;-89
2022/06/12 10:17:30;;;;;;;9.47;3.13;;;;;;;26.20;39.18;102175.44;5051899;28;20020;-89
2022/06/12 10:20:23;;;;;;;10.70;3.30;;;;;;;26.08;38.72;102173.38;5034227;28;20350;-89
2022/06/12 10:22:52;;;;;;;12.45;3.50;;;;;;;26.29;38.29;102174.25;5052826;28;20423;-89
2022/06/12 10:25:28;;;;;;;9.88;3.40;;;;;;;26.45;39.68;102176.41;5052085;28;20033;-89
2022/06/12 10:28:16;;;;;;;7.03;3.00;;;;;;;26.20;38.94;102162.53;5051538;28;20053;-87
2022/06/12 10:30:45;;;;;;;10.85;3.20;;;;;;;26.02;39.57;102156.31;5037473;28;20040;-88
2022/06/12 10:33:30;;;;;;;11.85;3.70;;;;;;;26.24;39.65;102165.41;5051200;28;20523;-88
2022/06/12 10:35:59;;;;;;;11.15;3.10;;;;;;;26.45;40.09;102166.22;5051468;28;20068;-89
2022/06/12 10:38:34;;;;;;;14.00;3.60;;;;;;;26.40;38.51;102160.94;5051271;28;20384;-89
2022/06/12 10:41:04;;;;;;;11.40;3.30;;;;;;;25.99;38.24;102156.97;5050537;28;20071;-89
2022/06/12 10:43:37;;;;;;;12.33;2.87;;;;;;;25.75;39.60;102169.34;5051334;28;20025;-89
2022/06/12 10:46:14;;;;;;;11.30;3.40;;;;;;;25.89;41.35;102160.88;5051122;28;20287;-89
2022/06/12 10:48:39;;;;;;;10.65;3.15;;;;;;;26.34;40.66;102166.97;5051340;28;20025;-89
2022/06/12 10:51:14;;;;;;;13.25;3.67;;;;;;;26.68;39.94;102165.06;5032713;28;20025;-88
2022/06/12 10:53:45;;;;;;;13.73;3.43;;;;;;;27.03;38.68;102162.81;5051001;28;20033;-87
2022/06/12 10:56:22;;;;;;;9.82;3.35;;;;;;;27.16;38.90;102160.13;5050800;28;20110;-89
2022/06/12 10:59:16;;;;;;;11.00;3.92;;;;;;;27.38;37.99;102150.66;5050724;28;20021;-88
2022/06/12 11:02:07;;;;;;;11.38;3.05;;;;;;;27.29;35.69;102161.75;5050107;28;20040;-88
2022/06/12 11:05:07;;;;;;;10.50;2.80;;;;;;;27.49;37.32;102140.81;5051016;28;20037;-88
2022/06/12 11:07:59;;;;;;;10.38;2.78;;;;;;;27.65;36.31;102148.41;5051737;28;20083;-88
2022/06/12 11:10:40;;;;;;;8.10;2.67;;;;;;;28.11;36.18;102149.09;5051458;28;20041;-88
2022/06/12 11:13:19;;;;;;;9.55;2.58;;;;;;;28.71;37.02;102153.16;5050864;28;20036;-88
2022/06/12 11:15:54;;;;;;;9.75;2.50;;;;;;;29.01;34.03;102150.06;5051055;28;20032;-89
2022/06/12 11:18:48;;;;;;;11.07;3.07;;;;;;;29.17;33.97;102141.78;5051151;28;20040;-89
2022/06/12 11:21:20;;;;;;;9.10;2.83;;;;;;;28.99;34.35;102144.88;5032718;28;20277;-88
2022/06/12 11:24:00;;;;;;;11.13;3.13;;;;;;;28.89;34.32;102147.34;5051988;28;20470;-89
2022/06/12 11:27:03;;;;;;;8.98;2.65;;;;;;;28.74;35.00;102146.19;5051703;28;20025;-89
2022/06/12 11:30:11;;;;;;;10.88;3.08;;;;;;;28.23;35.57;102150.19;5051049;28;20480;-88
2022/06/12 11:33:15;;;;;;;9.63;3.05;;;;;;;27.69;35.96;102143.81;5032726;28;20036;-87
2022/06/12 11:35:49;;;;;;;14.65;3.05;;;;;;;26.93;36.86;102141.25;5050952;28;20072;-88
2022/06/12 11:38:23;;;;;;;9.82;2.92;;;;;;;26.40;38.12;102140.88;5051310;28;20083;-88
2022/06/12 11:40:59;;;;;;;9.05;3.03;;;;;;;25.99;38.84;102138.56;5050475;28;20033;-88
2022/06/12 11:43:53;;;;;;;10.45;2.55;;;;;;;25.96;38.34;102132.91;5050769;28;20040;-88
2022/06/12 11:46:49;;;;;;;9.80;2.50;;;;;;;26.14;38.42;102131.69;5051245;28;20064;-88
2022/06/12 11:49:30;;;;;;;8.13;2.80;;;;;;;26.27;36.99;102129.03;5050636;28;20284;-88
2022/06/12 11:52:26;;;;;;;8.25;2.60;;;;;;;26.15;37.09;102122.31;5051791;28;20111;-88
2022/06/12 11:55:15;;;;;;;10.82;2.53;;;;;;;26.03;38.70;102126.88;5054470;28;20407;-89
2022/06/12 11:58:14;;;;;;;12.40;2.60;;;;;;;26.67;37.70;102117.53;5054653;28;20025;-89
2022/06/12 12:01:10;;;;;;;11.10;2.83;;;;;;;27.46;37.85;102113.19;5054563;28;20024;-89
2022/06/12 12:04:04;;;;;;;9.40;2.35;;;;;;;27.74;36.88;102110.53;5055488;28;20029;-89